Time;durP1;ratioP1;P1;durP2;ratioP2;P2;SDS_P1;SDS_P2;PMS_P1;PMS_P2;Temp;Humidity;BMP_temperature;BMP_pressure;BME280_temperature;BME280_humidity;BME280_pressure;Samples;Min_cycle;Max_cycle;Signal;HPM_P1;HPM_P2
2022/06/12 00:02:21;;;;;;;4.07;3.87;;;;;;;18.96;100.00;98921.63;5053203;28;20205;-70
2022/06/12 00:04:48;;;;;;;4.63;4.10;;;;;;;18.98;100.00;98927.53;5052750;28;20660;-70
2022/06/12 00:07:15;;;;;;;3.90;3.50;;;;;;;18.96;100.00;98929.41;5051313;28;20206;-70
2022/06/12 00:09:43;;;;;;;3.90;3.70;;;;;;;18.95;100.00;98928.59;5051414;28;20205;-70
2022/06/12 00:12:11;;;;;;;4.43;4.23;;;;;;;18.99;100.00;98934.38;5041597;28;20204;-71
2022/06/12 00:14:38;;;;;;;3.30;3.20;;;;;;;18.99;100.00;98929.19;5032958;28;20220;-70
2022/06/12 00:17:05;;;;;;;3.83;3.63;;;;;;;18.98;100.00;98937.91;5046137;28;20212;-70
2022/06/12 00:19:32;;;;;;;4.13;3.93;;;;;;;18.94;100.00;98926.91;5051762;28;20211;-70
2022/06/12 00:21:59;;;;;;;3.83;3.20;;;;;;;19.00;100.00;98925.66;5052033;28;20671;-70
2022/06/12 00:24:27;;;;;;;5.10;3.13;;;;;;;19.02;100.00;98913.38;5049515;28;20226;-70
2022/06/12 00:26:59;;;;;;;3.17;3.07;;;;;;;19.00;100.00;98916.06;5052037;28;20609;-70
2022/06/12 00:29:28;;;;;;;3.50;3.27;;;;;;;18.94;100.00;98905.31;5052678;28;20672;-70
2022/06/12 00:31:58;;;;;;;2.73;2.63;;;;;;;18.90;100.00;98898.69;5052565;28;20689;-70
2022/06/12 00:34:29;;;;;;;3.47;3.30;;;;;;;18.80;100.00;98894.13;5052674;28;20210;-70
2022/06/12 00:36:57;;;;;;;3.17;2.97;;;;;;;18.90;100.00;98909.09;5051185;28;20203;-70
2022/06/12 00:39:24;;;;;;;2.90;2.70;;;;;;;18.93;100.00;98904.50;5044925;28;20661;-70
2022/06/12 00:41:54;;;;;;;3.33;3.23;;;;;;;18.91;100.00;98902.94;5032526;28;20202;-69
2022/06/12 00:44:26;;;;;;;3.80;3.60;;;;;;;18.93;100.00;98898.47;5032929;28;20221;-70
2022/06/12 00:46:57;;;;;;;3.37;3.27;;;;;;;18.91;100.00;98906.34;5048318;28;20201;-69
2022/06/12 00:49:28;;;;;;;3.37;3.07;;;;;;;18.90;100.00;98903.88;5052360;28;20205;-70
2022/06/12 00:52:05;;;;;;;3.03;2.93;;;;;;;18.90;100.00;98911.69;5051023;28;20221;-69
2022/06/12 00:54:33;;;;;;;5.40;3.73;;;;;;;18.87;100.00;98910.09;5051904;28;20221;-71
2022/06/12 00:57:03;;;;;;;3.70;3.40;;;;;;;18.75;100.00;98891.03;5051485;28;20274;-70
2022/06/12 00:59:37;;;;;;;3.43;3.20;;;;;;;18.87;100.00;98912.69;5051952;28;20246;-70
2022/06/12 01:02:06;;;;;;;4.30;3.53;;;;;;;18.85;100.00;98912.81;5051848;28;20210;-65
2022/06/12 01:07:22;;;;;;;3.07;2.93;;;;;;;18.85;100.00;98896.41;5051401;28;20274;-65
2022/06/12 01:09:51;;;;;;;4.93;4.53;;;;;;;18.82;100.00;98900.06;5051736;28;20258;-65
2022/06/12 01:12:22;;;;;;;7.33;4.47;;;;;;;18.80;100.00;98898.53;5051356;28;20208;-65
2022/06/12 01:14:54;;;;;;;4.10;3.67;;;;;;;18.78;100.00;98890.81;5051062;28;20214;-65
2022/06/12 01:17:23;;;;;;;4.50;4.10;;;;;;;18.71;100.00;98888.75;5045038;28;20209;-65
2022/06/12 01:19:53;;;;;;;6.47;5.23;;;;;;;18.67;100.00;98893.38;5050152;28;20675;-65
2022/06/12 01:22:48;;;;;;;4.20;3.90;;;;;;;18.65;100.00;98900.44;5051612;28;20284;-65
2022/06/12 01:25:46;;;;;;;3.93;3.63;;;;;;;18.66;100.00;98893.47;5049997;28;20209;-65
2022/06/12 01:28:33;;;;;;;5.43;4.90;;;;;;;18.68;100.00;98895.00;5041576;28;20206;-66
2022/06/12 01:31:07;;;;;;;4.27;3.97;;;;;;;18.68;100.00;98889.00;5051339;28;20193;-65
2022/06/12 01:33:43;;;;;;;3.63;3.27;;;;;;;18.64;100.00;98890.97;5051605;28;20201;-65
2022/06/12 01:36:19;;;;;;;3.53;3.33;;;;;;;18.65;100.00;98890.03;5049773;28;20230;-65
2022/06/12 01:38:53;;;;;;;5.17;3.77;;;;;;;18.68;100.00;98892.41;5049200;28;20205;-66
2022/06/12 01:41:29;;;;;;;3.50;3.10;;;;;;;18.72;100.00;98891.28;5051320;28;20231;-65
2022/06/12 01:44:09;;;;;;;3.10;2.90;;;;;;;18.76;100.00;98884.94;5051473;28;20684;-65
2022/06/12 01:46:42;;;;;;;3.47;3.27;;;;;;;18.76;100.00;98887.53;5050478;28;20196;-65
2022/06/12 01:49:15;;;;;;;3.90;3.60;;;;;;;18.68;100.00;98882.03;5051026;28;20207;-65
2022/06/12 01:51:50;;;;;;;3.43;3.33;;;;;;;18.76;100.00;98895.31;5051326;28;20196;-65
2022/06/12 01:54:23;;;;;;;3.17;2.97;;;;;;;18.70;100.00;98895.75;5050961;28;20205;-65
2022/06/12 01:57:00;;;;;;;3.60;3.40;;;;;;;18.68;100.00;98897.63;5049490;28;20193;-65
2022/06/12 01:59:38;;;;;;;6.40;3.87;;;;;;;18.74;100.00;98896.38;5050562;28;20202;-66
2022/06/12 02:02:14;;;;;;;3.83;3.63;;;;;;;18.77;100.00;98899.53;5050748;28;20257;-65
2022/06/12 02:04:47;;;;;;;3.90;3.70;;;;;;;18.80;100.00;98899.31;5050906;28;20192;-65
2022/06/12 02:07:20;;;;;;;3.50;3.33;;;;;;;18.81;100.00;98901.00;5049326;28;20203;-65
2022/06/12 02:09:54;;;;;;;3.30;3.00;;;;;;;18.81;100.00;98897.56;5049046;28;20667;-66
2022/06/12 02:15:14;;;;;;;3.10;3.00;;;;;;;18.82;100.00;98897.47;5045171;28;20344;-65
2022/06/12 02:17:47;;;;;;;5.50;3.97;;;;;;;18.86;100.00;98909.31;5048804;28;20206;-65
2022/06/12 02:20:19;;;;;;;3.87;3.67;;;;;;;18.81;100.00;98885.41;5050852;28;20206;-65
2022/06/12 02:22:48;;;;;;;3.43;3.23;;;;;;;18.88;100.00;98912.59;5046665;28;20557;-65
2022/06/12 02:25:19;;;;;;;3.47;3.30;;;;;;;18.93;100.00;98914.06;5050588;28;20248;-65
2022/06/12 02:27:51;;;;;;;3.57;3.37;;;;;;;18.98;100.00;98917.13;5049814;28;20208;-66
2022/06/12 02:30:24;;;;;;;3.73;3.40;;;;;;;19.02;100.00;98913.38;5049348;28;20583;-66
2022/06/12 02:32:56;;;;;;;4.40;4.07;;;;;;;19.04;100.00;98911.50;5037535;28;20198;-66
2022/06/12 02:35:29;;;;;;;4.30;3.63;;;;;;;19.05;100.00;98913.16;5042441;28;20216;-65
2022/06/12 02:38:02;;;;;;;3.80;3.60;;;;;;;19.05;100.00;98907.97;5050268;28;20193;-66
2022/06/12 02:40:34;;;;;;;3.90;3.60;;;;;;;19.00;100.00;98897.09;5050511;28;20198;-66
2022/06/12 02:43:06;;;;;;;4.23;3.93;;;;;;;18.99;100.00;98898.03;5050404;28;21049;-66
2022/06/12 02:45:39;;;;;;;5.67;3.57;;;;;;;18.91;100.00;98900.31;5047123;28;20200;-66
2022/06/12 02:48:07;;;;;;;3.57;3.43;;;;;;;18.91;100.00;98900.31;5048411;28;20635;-66
2022/06/12 02:50:41;;;;;;;4.67;4.03;;;;;;;18.84;100.00;98900.78;5049963;28;20672;-66
2022/06/12 02:53:20;;;;;;;3.83;3.60;;;;;;;18.82;100.00;98894.88;5054588;28;20204;-66
2022/06/12 02:55:55;;;;;;;3.97;3.77;;;;;;;18.81;100.00;98903.59;5050028;28;20654;-65
2022/06/12 02:58:31;;;;;;;4.10;3.90;;;;;;;18.78;100.00;98896.03;5051625;28;20193;-65
2022/06/12 03:01:02;;;;;;;4.40;3.97;;;;;;;18.83;100.00;98893.09;5054167;28;20217;-66
2022/06/12 03:03:36;;;;;;;4.10;3.90;;;;;;;18.75;100.00;98885.03;5054280;28;20201;-66
2022/06/12 03:06:04;;;;;;;3.93;3.63;;;;;;;18.76;100.00;98892.72;5052840;28;20205;-66
2022/06/12 03:08:35;;;;;;;3.53;3.33;;;;;;;18.67;100.00;98893.38;5048849;28;20206;-66
2022/06/12 03:11:06;;;;;;;7.33;4.37;;;;;;;18.60;100.00;98892.16;5047013;28;20205;-66
2022/06/12 03:13:34;;;;;;;4.43;4.23;;;;;;;18.57;100.00;98891.53;5052454;28;20217;-66
2022/06/12 03:16:12;;;;;;;4.07;3.87;;;;;;;18.58;100.00;98896.59;5053222;28;20220;-66
2022/06/12 03:18:42;;;;;;;4.00;3.80;;;;;;;18.57;100.00;98897.56;5054058;28;20251;-66
2022/06/12 03:21:22;;;;;;;5.03;4.63;;;;;;;18.58;100.00;98901.00;5054261;28;20702;-66
2022/06/12 03:24:05;;;;;;;4.73;4.43;;;;;;;18.53;100.00;98890.91;5052020;28;20202;-66
2022/06/12 03:26:40;;;;;;;5.20;4.83;;;;;;;18.54;100.00;98884.81;5050616;28;20694;-65
2022/06/12 03:29:16;;;;;;;4.47;4.17;;;;;;;18.52;100.00;98889.25;5039341;28;20210;-66
2022/06/12 03:31:51;;;;;;;5.30;4.80;;;;;;;18.49;100.00;98889.44;5036026;28;20255;-66
2022/06/12 03:34:28;;;;;;;5.00;4.70;;;;;;;18.47;100.00;98891.31;5053534;28;20198;-66
2022/06/12 03:37:03;;;;;;;5.10;4.80;;;;;;;18.48;100.00;98897.34;5053060;28;20262;-66
2022/06/12 03:39:37;;;;;;;4.53;4.13;;;;;;;18.47;100.00;98896.50;5046630;28;20250;-66
2022/06/12 03:42:12;;;;;;;4.87;4.57;;;;;;;18.49;100.00;98897.22;5052459;28;20200;-65
2022/06/12 03:44:47;;;;;;;5.87;5.00;;;;;;;18.40;100.00;98887.50;5050794;28;20204;-66
2022/06/12 03:47:21;;;;;;;6.03;5.57;;;;;;;18.50;100.00;98901.53;5051475;28;20257;-66
2022/06/12 03:49:53;;;;;;;5.67;5.40;;;;;;;18.53;100.00;98895.28;5052110;28;20204;-66
2022/06/12 03:52:26;;;;;;;6.27;5.87;;;;;;;18.56;100.00;98900.25;5053258;28;20203;-66
2022/06/12 03:54:57;;;;;;;6.00;5.60;;;;;;;18.57;100.00;98894.97;5053321;28;20211;-66
2022/06/12 04:00:19;;;;;;;6.10;5.67;;;;;;;18.54;100.00;98900.38;5044930;28;20196;-66
2022/06/12 04:02:52;;;;;;;5.07;4.80;;;;;;;18.53;100.00;98895.28;5049811;28;20200;-66
2022/06/12 04:05:23;;;;;;;6.10;5.70;;;;;;;18.52;100.00;98897.03;5040789;28;20193;-66
2022/06/12 04:07:53;;;;;;;5.70;5.40;;;;;;;18.52;100.00;98894.44;5043177;28;20553;-66
2022/06/12 04:10:24;;;;;;;5.40;5.10;;;;;;;18.56;100.00;98889.88;5052727;28;20205;-66
2022/06/12 04:12:51;;;;;;;6.07;5.67;;;;;;;18.56;100.00;98890.69;5050763;28;20211;-65
2022/06/12 04:15:23;;;;;;;6.40;5.97;;;;;;;18.55;100.00;98886.44;5047367;28;20612;-65
2022/06/12 04:17:52;;;;;;;5.80;5.50;;;;;;;18.55;100.00;98878.66;5045808;28;20204;-65
2022/06/12 04:20:22;;;;;;;6.30;5.90;;;;;;;18.56;100.00;98890.69;5050502;28;20229;-66
2022/06/12 04:22:55;;;;;;;6.43;6.07;;;;;;;18.59;100.00;98885.28;5050886;28;20204;-66
2022/06/12 04:25:31;;;;;;;6.00;5.70;;;;;;;18.61;100.00;98895.56;5050746;28;20211;-66
2022/06/12 04:27:58;;;;;;;5.93;5.43;;;;;;;18.47;100.00;98864.53;5051454;28;20201;-66
2022/06/12 04:30:28;;;;;;;7.00;5.97;;;;;;;18.63;100.00;98891.94;5054532;28;20201;-65
2022/06/12 04:33:20;;;;;;;6.03;5.63;;;;;;;18.65;100.00;98894.41;5049066;28;20228;-66
2022/06/12 04:35:52;;;;;;;6.33;5.97;;;;;;;18.68;100.00;98907.16;5042244;28;20695;-66
2022/06/12 04:38:20;;;;;;;6.80;6.30;;;;;;;18.73;100.00;98908.50;5050342;28;20208;-66
2022/06/12 04:40:47;;;;;;;6.70;6.10;;;;;;;18.74;100.00;98912.75;5042725;28;20555;-66
2022/06/12 04:43:14;;;;;;;5.67;5.37;;;;;;;18.78;100.00;98906.41;5039823;28;20208;-66
2022/06/12 04:45:42;;;;;;;6.30;5.90;;;;;;;18.79;100.00;98908.06;5052341;28;20235;-66
2022/06/12 04:48:15;;;;;;;6.47;6.10;;;;;;;18.87;100.00;98912.69;5037666;28;20198;-66
2022/06/12 04:50:42;;;;;;;6.30;6.00;;;;;;;18.88;100.00;98912.59;5048878;28;20192;-66
2022/06/12 04:53:09;;;;;;;5.37;5.03;;;;;;;18.91;100.00;98921.09;5051012;28;20557;-66
2022/06/12 04:55:36;;;;;;;5.87;5.57;;;;;;;18.93;100.00;98911.47;5052099;28;20228;-66
2022/06/12 04:58:05;;;;;;;6.60;6.20;;;;;;;18.94;100.00;98915.69;5051891;28;20205;-66
2022/06/12 05:00:32;;;;;;;6.07;5.67;;;;;;;18.90;100.00;98919.47;5052076;28;20206;-66
2022/06/12 05:02:59;;;;;;;5.90;5.60;;;;;;;18.93;100.00;98935.66;5046083;28;20197;-66
2022/06/12 05:05:27;;;;;;;6.53;6.07;;;;;;;18.98;100.00;98933.56;5052006;28;20573;-66
2022/06/12 05:07:54;;;;;;;6.07;5.77;;;;;;;19.00;100.00;98930.88;5039475;28;20214;-66
2022/06/12 05:10:21;;;;;;;6.10;5.80;;;;;;;19.01;100.00;98932.50;5049486;28;20210;-66
2022/06/12 05:12:48;;;;;;;5.77;5.47;;;;;;;18.99;100.00;98939.59;5051718;28;20207;-66
2022/06/12 05:15:16;;;;;;;5.60;5.30;;;;;;;19.01;100.00;98942.88;5046976;28;20681;-65
2022/06/12 05:17:46;;;;;;;6.03;5.73;;;;;;;19.03;100.00;98946.22;5047053;28;20581;-66
2022/06/12 05:20:16;;;;;;;5.10;4.90;;;;;;;19.02;100.00;98944.56;5031510;28;20308;-66
2022/06/12 05:22:45;;;;;;;4.73;4.53;;;;;;;19.06;100.00;98948.59;5031489;28;20197;-66
2022/06/12 05:25:13;;;;;;;6.13;5.03;;;;;;;19.09;100.00;98951.81;5031288;28;20208;-66
2022/06/12 05:27:42;;;;;;;5.33;5.03;;;;;;;19.01;100.00;98933.34;5040532;28;20196;-66
2022/06/12 05:30:11;;;;;;;4.67;4.47;;;;;;;19.09;100.00;98945.78;5046942;28;20201;-66
2022/06/12 05:32:38;;;;;;;5.13;4.83;;;;;;;19.09;100.00;98950.97;5050824;28;20215;-66
2022/06/12 05:35:07;;;;;;;5.83;5.53;;;;;;;19.08;100.00;98941.50;5050413;28;20225;-66
2022/06/12 05:37:34;;;;;;;4.93;4.63;;;;;;;19.08;100.00;98949.31;5049115;28;20250;-66
2022/06/12 05:40:02;;;;;;;5.33;5.03;;;;;;;19.09;100.00;98956.19;5050463;28;20203;-66
2022/06/12 05:42:29;;;;;;;5.30;4.90;;;;;;;19.01;100.00;98942.88;5050482;28;20209;-66
2022/06/12 05:44:56;;;;;;;5.80;5.40;;;;;;;19.12;100.00;98940.38;5050417;28;20581;-66
2022/06/12 05:47:23;;;;;;;4.87;4.67;;;;;;;19.14;100.00;98951.47;5050935;28;20665;-66
2022/06/12 05:49:50;;;;;;;5.03;4.73;;;;;;;19.17;100.00;98951.25;5049507;28;20203;-66
2022/06/12 05:52:17;;;;;;;5.73;5.33;;;;;;;19.18;100.00;98945.13;5048192;28;20703;-66
2022/06/12 05:54:44;;;;;;;5.40;5.10;;;;;;;19.18;100.00;98951.16;5050130;28;20273;-66
2022/06/12 05:57:12;;;;;;;5.70;5.30;;;;;;;19.20;100.00;98946.66;5050268;28;20587;-66
2022/06/12 05:59:39;;;;;;;6.83;5.70;;;;;;;19.23;100.00;98956.00;5049641;28;20218;-66
2022/06/12 06:02:06;;;;;;;6.33;5.50;;;;;;;19.25;100.00;98954.97;5045796;28;20202;-66
2022/06/12 06:04:33;;;;;;;5.63;5.33;;;;;;;19.27;100.00;98952.22;5049549;28;20198;-66
2022/06/12 06:07:00;;;;;;;6.67;6.17;;;;;;;19.30;100.00;98955.44;5048295;28;20217;-66
2022/06/12 06:09:29;;;;;;;7.00;6.30;;;;;;;19.21;100.00;98934.50;5048648;28;20694;-66
2022/06/12 06:11:55;;;;;;;6.23;5.80;;;;;;;19.37;100.00;98956.66;5049900;28;20201;-66
2022/06/12 06:14:24;;;;;;;6.37;6.07;;;;;;;19.43;100.00;98957.16;5049658;28;20200;-66
2022/06/12 06:16:51;;;;;;;7.13;5.73;;;;;;;19.48;100.00;98958.50;5049491;28;20221;-66
2022/06/12 06:19:18;;;;;;;6.53;6.13;;;;;;;19.52;100.00;98957.31;5050183;28;20289;-66
2022/06/12 06:21:45;;;;;;;6.10;5.67;;;;;;;19.46;100.00;98943.94;5049717;28;20588;-66
2022/06/12 06:24:13;;;;;;;5.80;5.50;;;;;;;19.55;100.00;98962.28;5043423;28;20203;-66
2022/06/12 06:26:40;;;;;;;5.87;5.47;;;;;;;19.60;100.00;98968.00;5049386;28;20216;-66
2022/06/12 06:29:07;;;;;;;5.73;5.33;;;;;;;19.62;100.00;98971.31;5050228;28;20221;-66
2022/06/12 06:31:36;;;;;;;5.83;5.53;;;;;;;19.65;100.00;98978.03;5046802;28;20212;-66
2022/06/12 06:34:04;;;;;;;5.83;5.53;;;;;;;19.66;100.00;98977.94;5047974;28;20201;-66
2022/06/12 06:36:31;;;;;;;5.93;5.43;;;;;;;19.68;100.00;98981.25;5047757;28;20228;-66
2022/06/12 06:38:59;;;;;;;6.17;5.70;;;;;;;19.73;100.00;98978.31;5049272;28;20670;-66
2022/06/12 06:41:27;;;;;;;6.60;6.30;;;;;;;19.74;100.00;98965.19;5049738;28;20584;-66
2022/06/12 06:46:40;;;;;;;6.23;5.93;;;;;;;19.86;100.00;98979.91;5049305;28;20209;-66
2022/06/12 06:49:08;;;;;;;6.40;6.00;;;;;;;19.87;100.00;98986.75;5049004;28;20293;-66
2022/06/12 06:51:35;;;;;;;6.00;5.70;;;;;;;19.87;100.00;98978.94;5049671;28;20592;-66
2022/06/12 06:54:04;;;;;;;7.70;7.13;;;;;;;19.89;100.00;98990.09;5045813;28;20215;-66
2022/06/12 06:56:31;;;;;;;6.20;5.90;;;;;;;19.87;100.00;98978.13;5046714;28;20226;-64
2022/06/12 06:58:58;;;;;;;6.73;6.40;;;;;;;20.01;100.00;99003.09;5048619;28;20207;-66
2022/06/12 07:01:25;;;;;;;5.73;5.43;;;;;;;20.04;100.00;99010.69;5050135;28;20211;-66
2022/06/12 07:03:53;;;;;;;5.73;5.33;;;;;;;20.04;100.00;99002.88;5045351;28;20202;-68
2022/06/12 07:06:21;;;;;;;6.23;5.93;;;;;;;20.08;100.00;99018.16;5049378;28;20576;-68
2022/06/12 07:08:48;;;;;;;5.97;5.67;;;;;;;20.09;100.00;99021.59;5048221;28;20230;-68
2022/06/12 07:11:15;;;;;;;5.67;5.27;;;;;;;20.11;100.00;99017.09;5048623;28;20604;-68
2022/06/12 07:13:42;;;;;;;5.43;5.13;;;;;;;20.15;100.00;99021.13;5048629;28;20203;-68
2022/06/12 07:16:08;;;;;;;6.50;6.20;;;;;;;20.19;100.00;99022.56;5047040;28;20226;-68
2022/06/12 07:18:35;;;;;;;6.10;5.80;;;;;;;20.20;100.00;99013.78;5044320;28;20613;-68
2022/06/12 07:21:04;;;;;;;5.87;5.57;;;;;;;20.26;100.00;99010.72;5043393;28;20266;-68
2022/06/12 07:23:32;;;;;;;6.13;5.83;;;;;;;20.26;100.00;99018.53;5049531;28;20197;-67
2022/06/12 07:26:04;;;;;;;7.23;6.83;;;;;;;20.20;100.00;99011.19;5046021;28;20686;-67
2022/06/12 07:28:31;;;;;;;6.23;5.93;;;;;;;20.22;100.00;99019.72;5041889;28;20205;-70
2022/06/12 07:30:58;;;;;;;5.90;5.60;;;;;;;20.25;100.00;99032.50;5046518;28;20212;-69
2022/06/12 07:33:25;;;;;;;5.43;5.13;;;;;;;20.27;100.00;99030.63;5045154;28;20211;-73
2022/06/12 07:35:53;;;;;;;7.00;6.53;;;;;;;20.31;100.00;99038.09;5046945;28;20237;-69
2022/06/12 07:38:24;;;;;;;6.03;5.73;;;;;;;20.34;100.00;99042.25;5048413;28;20243;-68
2022/06/12 07:40:54;;;;;;;6.37;6.00;;;;;;;20.37;100.00;99040.25;5051032;28;20211;-70
2022/06/12 07:43:22;;;;;;;6.33;6.00;;;;;;;20.38;100.00;99054.09;5050729;28;20214;-70
2022/06/12 07:45:51;;;;;;;6.40;6.10;;;;;;;20.34;100.00;99042.25;5052075;28;20214;-67
2022/06/12 07:48:18;;;;;;;5.57;5.27;;;;;;;20.37;100.00;99052.44;5051446;28;20216;-70
2022/06/12 07:50:47;;;;;;;6.30;5.80;;;;;;;20.40;100.00;99060.00;5051543;28;20210;-67
2022/06/12 07:53:16;;;;;;;6.27;5.87;;;;;;;20.43;100.00;99044.97;5052839;28;20211;-69
2022/06/12 07:55:46;;;;;;;5.77;5.50;;;;;;;20.42;100.00;99045.09;5050795;28;20678;-71
2022/06/12 07:58:14;;;;;;;5.60;5.20;;;;;;;20.41;100.00;99044.28;5051961;28;20230;-71
2022/06/12 08:00:42;;;;;;;6.03;5.73;;;;;;;20.45;100.00;99049.25;5051542;28;20212;-70
2022/06/12 08:03:09;;;;;;;5.17;4.77;;;;;;;20.48;100.00;99049.84;5048957;28;20208;-70
2022/06/12 08:05:36;;;;;;;5.67;5.27;;;;;;;20.51;100.00;99054.81;5052023;28;20580;-69
2022/06/12 08:08:03;;;;;;;4.83;4.63;;;;;;;20.51;100.00;99059.19;5046257;28;20200;-72
2022/06/12 08:10:31;;;;;;;4.43;4.23;;;;;;;20.46;100.00;99061.31;5049215;28;20215;-71
2022/06/12 08:13:03;;;;;;;4.87;4.67;;;;;;;20.47;100.00;99061.22;5041294;28;20202;-70
2022/06/12 08:15:31;;;;;;;5.47;5.00;;;;;;;20.47;100.00;99066.41;5050051;28;20211;-71
2022/06/12 08:17:58;;;;;;;5.00;4.67;;;;;;;20.49;100.00;99064.50;5049948;28;20241;-70
2022/06/12 08:20:25;;;;;;;5.20;4.90;;;;;;;20.52;100.00;99061.66;5047656;28;20206;-70
2022/06/12 08:22:53;;;;;;;4.90;4.50;;;;;;;20.51;100.00;99065.25;5051190;28;20634;-70
2022/06/12 08:25:21;;;;;;;3.83;3.57;;;;;;;20.44;100.00;99074.47;5049948;28;20216;-70
2022/06/12 08:27:48;;;;;;;4.10;3.90;;;;;;;20.46;100.00;99088.19;5050422;28;20218;-70
2022/06/12 08:30:17;;;;;;;3.80;3.70;;;;;;;20.49;100.00;99108.78;5051169;28;20692;-70
2022/06/12 08:32:47;;;;;;;3.83;3.63;;;;;;;20.40;100.00;99073.03;5048303;28;20205;-70
2022/06/12 08:35:19;;;;;;;4.20;3.90;;;;;;;20.53;100.00;99072.91;5050581;28;20224;-70
2022/06/12 08:37:46;;;;;;;4.63;4.37;;;;;;;20.52;100.00;99082.50;5048751;28;20576;-70
2022/06/12 08:40:21;;;;;;;3.83;3.63;;;;;;;20.57;100.00;99085.59;5051382;28;20197;-70
2022/06/12 08:42:57;;;;;;;4.60;4.40;;;;;;;20.57;100.00;99080.41;5049464;28;20229;-70
2022/06/12 08:45:30;;;;;;;4.90;4.50;;;;;;;20.70;100.00;99094.16;5051054;28;20204;-70
2022/06/12 08:48:04;;;;;;;3.63;3.43;;;;;;;20.68;100.00;99083.00;5051458;28;20208;-70
2022/06/12 08:50:37;;;;;;;4.17;3.97;;;;;;;20.82;100.00;99095.81;5051323;28;20660;-70
2022/06/12 08:53:11;;;;;;;4.30;4.00;;;;;;;20.85;100.00;99092.97;5051518;28;20203;-70
2022/06/12 08:55:42;;;;;;;4.90;4.60;;;;;;;20.93;100.00;99093.22;5050842;28;20626;-70
2022/06/12 08:58:17;;;;;;;4.07;3.87;;;;;;;21.03;100.00;99102.91;5049657;28;20596;-70
2022/06/12 09:00:46;;;;;;;4.00;3.70;;;;;;;20.99;100.00;99083.25;5049560;28;20207;-70
2022/06/12 09:03:17;;;;;;;3.37;3.07;;;;;;;21.12;100.00;99102.22;5049489;28;21486;-70
2022/06/12 09:05:52;;;;;;;3.73;3.63;;;;;;;21.16;100.00;99106.25;5050978;28;20585;-70
2022/06/12 09:08:29;;;;;;;3.93;3.73;;;;;;;21.18;100.00;99088.72;5048411;28;20220;-70
2022/06/12 09:11:06;;;;;;;5.00;4.70;;;;;;;21.24;100.00;99090.84;5050358;28;20212;-70
2022/06/12 09:13:42;;;;;;;4.10;3.90;;;;;;;21.28;100.00;99093.09;5047296;28;20204;-70
2022/06/12 09:16:18;;;;;;;4.33;4.03;;;;;;;21.22;100.00;99090.13;5050318;28;20204;-70
2022/06/12 09:18:50;;;;;;;3.53;3.43;;;;;;;21.23;100.00;99097.00;5047956;28;20281;-70
2022/06/12 09:21:25;;;;;;;3.43;3.23;;;;;;;21.16;100.00;99103.66;5048976;28;20200;-70
2022/06/12 09:24:06;;;;;;;3.83;3.63;;;;;;;21.17;100.00;99105.28;5049611;28;20670;-70
2022/06/12 09:26:44;;;;;;;3.67;3.47;;;;;;;21.18;100.00;99096.53;5048320;28;20219;-70
2022/06/12 09:29:21;;;;;;;3.70;3.50;;;;;;;21.08;100.00;99087.75;5049253;28;20207;-70
2022/06/12 09:31:54;;;;;;;4.10;3.90;;;;;;;21.20;100.00;99110.28;5049591;28;20227;-70
2022/06/12 09:34:33;;;;;;;4.07;3.87;;;;;;;21.11;100.00;99101.41;5047132;28;20210;-70
2022/06/12 09:40:04;;;;;;;3.93;3.73;;;;;;;21.19;100.00;99109.47;5048004;28;20255;-68
2022/06/12 09:42:40;;;;;;;4.50;4.10;;;;;;;21.25;100.00;99100.31;5051207;28;20206;-67
2022/06/12 09:45:18;;;;;;;5.20;5.00;;;;;;;21.28;100.00;99108.75;5047787;28;20575;-67
2022/06/12 09:47:51;;;;;;;5.53;5.23;;;;;;;21.30;100.00;99095.56;5048723;28;20269;-70
2022/06/12 09:50:33;;;;;;;4.23;4.03;;;;;;;21.35;100.00;99098.66;5048933;28;20211;-70
2022/06/12 09:53:16;;;;;;;5.27;5.07;;;;;;;21.39;100.00;99094.84;5049517;28;20212;-70
2022/06/12 09:55:49;;;;;;;5.43;5.13;;;;;;;21.41;100.00;99095.56;5046418;28;20584;-70
2022/06/12 09:58:21;;;;;;;6.13;5.83;;;;;;;21.46;100.00;99096.00;5047946;28;20220;-70
2022/06/12 10:00:54;;;;;;;5.53;5.23;;;;;;;21.52;100.00;99098.13;5049399;28;20211;-70
2022/06/12 10:03:28;;;;;;;5.83;5.53;;;;;;;21.66;100.00;99097.03;5049532;28;20668;-70
2022/06/12 10:05:59;;;;;;;6.07;5.77;;;;;;;21.66;100.00;99097.03;5048062;28;20233;-70
2022/06/12 10:08:35;;;;;;;5.10;4.90;;;;;;;21.79;100.00;99102.91;5048151;28;20588;-70
2022/06/12 10:11:10;;;;;;;5.77;5.47;;;;;;;21.82;100.00;99103.50;5049605;28;20618;-71
2022/06/12 10:13:42;;;;;;;5.83;5.53;;;;;;;21.83;100.00;99094.72;5048464;28;20231;-70
2022/06/12 10:16:14;;;;;;;5.57;5.27;;;;;;;22.02;100.00;99098.47;5047311;28;20205;-68
2022/06/12 10:18:47;;;;;;;5.43;5.03;;;;;;;21.99;100.00;99096.94;5048800;28;20699;-68
2022/06/12 10:21:18;;;;;;;5.60;5.20;;;;;;;21.94;100.00;99101.69;5048992;28;20603;-67
2022/06/12 10:23:45;;;;;;;6.00;5.40;;;;;;;21.92;100.00;99094.00;5043671;28;20201;-68
2022/06/12 10:26:18;;;;;;;5.23;4.80;;;;;;;21.91;100.00;99110.63;5050814;28;20207;-68
2022/06/12 10:28:46;;;;;;;5.20;5.00;;;;;;;21.95;100.00;99112.03;5050042;28;20770;-68
2022/06/12 10:31:21;;;;;;;5.17;4.97;;;;;;;22.01;100.00;99107.25;5049556;28;20208;-68
2022/06/12 10:33:56;;;;;;;5.07;4.80;;;;;;;22.08;100.00;99100.56;5048567;28;20208;-68
2022/06/12 10:36:27;;;;;;;4.53;4.33;;;;;;;21.93;100.00;99116.56;5047471;28;20259;-68
2022/06/12 10:39:05;;;;;;;4.47;4.27;;;;;;;21.85;100.00;99107.63;5050487;28;20224;-69
2022/06/12 10:41:33;;;;;;;5.50;5.30;;;;;;;21.79;100.00;99100.31;5050019;28;20266;-69
2022/06/12 10:44:00;;;;;;;5.00;4.80;;;;;;;21.77;100.00;99095.22;5048870;28;20235;-68
2022/06/12 10:46:30;;;;;;;5.40;5.10;;;;;;;21.74;100.00;99097.25;5051255;28;20577;-68
2022/06/12 10:49:02;;;;;;;5.83;5.40;;;;;;;21.87;100.00;99093.50;5052190;28;20207;-70
2022/06/12 10:51:36;;;;;;;4.60;4.30;;;;;;;21.88;100.00;99095.19;5048977;28;20211;-69
2022/06/12 10:54:10;;;;;;;5.37;4.97;;;;;;;21.86;100.00;99094.47;5047794;28;20204;-69
2022/06/12 10:56:44;;;;;;;4.33;4.13;;;;;;;21.83;100.00;99094.72;5050616;28;20706;-69
2022/06/12 10:59:30;;;;;;;4.83;4.43;;;;;;;21.78;100.00;99096.88;5049037;28;20236;-70
2022/06/12 11:02:29;;;;;;;3.83;3.67;;;;;;;21.86;100.00;99099.69;5039806;28;20683;-69
2022/06/12 11:05:08;;;;;;;3.17;3.07;;;;;;;21.86;100.00;99094.47;5048457;28;20213;-70
2022/06/12 11:07:43;;;;;;;3.60;3.50;;;;;;;21.86;100.00;99091.88;5044976;28;20200;-69
2022/06/12 11:10:21;;;;;;;3.57;3.40;;;;;;;21.70;100.00;99070.59;5053665;28;20206;-70
2022/06/12 11:13:01;;;;;;;3.10;3.00;;;;;;;21.76;100.00;99095.34;5050167;28;20200;-69
2022/06/12 11:15:55;;;;;;;3.53;3.33;;;;;;;21.80;100.00;99099.38;5042815;28;20665;-69
2022/06/12 11:18:34;;;;;;;3.70;3.50;;;;;;;21.73;100.00;99087.75;5053499;28;20217;-69
2022/06/12 11:21:08;;;;;;;3.30;3.20;;;;;;;21.73;100.00;99088.59;5053102;28;20697;-69
2022/06/12 11:23:55;;;;;;;3.73;3.57;;;;;;;21.76;100.00;99098.78;5052190;28;20200;-69
2022/06/12 11:26:32;;;;;;;4.70;4.50;;;;;;;21.72;100.00;99088.69;5051437;28;20211;-69
2022/06/12 11:29:11;;;;;;;3.87;3.67;;;;;;;21.64;100.00;99094.56;5053065;28;20208;-69
2022/06/12 11:31:51;;;;;;;3.87;3.67;;;;;;;21.52;100.00;99082.47;5053673;28;21587;-69
2022/06/12 11:34:30;;;;;;;5.50;4.20;;;;;;;21.52;100.00;99086.88;5053200;28;20200;-69
2022/06/12 11:37:13;;;;;;;4.00;3.80;;;;;;;21.46;100.00;99090.78;5052657;28;20231;-69
2022/06/12 11:39:44;;;;;;;4.20;4.00;;;;;;;21.48;100.00;99093.28;5052882;28;20656;-68
2022/06/12 11:42:47;;;;;;;3.70;3.37;;;;;;;21.44;100.00;99077.06;5052942;28;20262;-69
2022/06/12 11:45:26;;;;;;;3.90;3.70;;;;;;;21.39;100.00;99082.63;5051944;28;20211;-69
2022/06/12 11:48:14;;;;;;;3.97;3.77;;;;;;;21.43;100.00;99091.03;5044310;28;20210;-69
2022/06/12 11:50:49;;;;;;;3.77;3.57;;;;;;;21.41;100.00;99090.34;5052066;28;20212;-69
2022/06/12 11:53:35;;;;;;;4.63;4.33;;;;;;;21.41;100.00;99098.16;5051142;28;20598;-69
2022/06/12 11:56:12;;;;;;;4.03;3.83;;;;;;;21.41;100.00;99104.22;5051543;28;20219;-69
2022/06/12 11:58:54;;;;;;;4.03;3.83;;;;;;;21.46;100.00;99104.66;5050158;28;20646;-68
2022/06/12 12:01:30;;;;;;;4.07;3.87;;;;;;;21.37;100.00;99094.13;5052032;28;20204;-68